createdAt,value
2022-09-27T00:02:19.859Z,10.80
2022-09-27T00:04:51.741Z,10.80
2022-09-27T00:07:25.623Z,10.70
2022-09-27T00:09:59.960Z,10.70
2022-09-27T00:12:31.682Z,10.60
2022-09-27T00:15:04.303Z,10.60
2022-09-27T00:17:36.755Z,10.50
2022-09-27T00:20:09.665Z,10.50
2022-09-27T00:22:41.376Z,10.40
2022-09-27T00:25:13.138Z,10.40
2022-09-27T00:27:44.913Z,10.40
2022-09-27T00:30:19.191Z,10.30
2022-09-27T00:32:53.003Z,10.30
2022-09-27T00:35:24.831Z,10.30
2022-09-27T00:38:01.486Z,10.30
2022-09-27T00:40:33.280Z,10.20
2022-09-27T00:43:34.375Z,10.20
2022-09-27T00:46:06.295Z,10.20
2022-09-27T00:48:38.053Z,10.20
2022-09-27T00:51:09.929Z,10.10
2022-09-27T00:53:51.651Z,10.10
2022-09-27T00:56:26.297Z,10.10
2022-09-27T00:59:01.749Z,10.10
2022-09-27T01:01:33.657Z,10.10
2022-09-27T01:04:08.745Z,10.00
2022-09-27T01:06:40.717Z,10.00
2022-09-27T01:09:14.914Z,10.00
2022-09-27T01:12:01.831Z,10.00
2022-09-27T01:14:42.546Z,9.90
2022-09-27T01:17:33.148Z,9.90
2022-09-27T01:20:04.897Z,9.90
2022-09-27T01:22:36.655Z,9.90
2022-09-27T01:25:28.094Z,9.90
2022-09-27T01:28:13.251Z,9.90
2022-09-27T01:31:02.126Z,9.90
2022-09-27T01:33:47.673Z,10.00
2022-09-27T01:36:27.891Z,9.90
2022-09-27T01:39:17.953Z,9.90
2022-09-27T01:42:01.947Z,9.90
2022-09-27T01:44:40.059Z,9.90
2022-09-27T01:47:22.374Z,9.90
2022-09-27T01:50:01.220Z,9.90
2022-09-27T01:52:36.457Z,9.80
2022-09-27T01:55:10.290Z,9.80
2022-09-27T01:57:46.409Z,9.80
2022-09-27T02:00:19.186Z,9.80
2022-09-27T02:02:54.992Z,9.80
2022-09-27T02:05:30.280Z,9.80
2022-09-27T02:08:06.105Z,9.70
2022-09-27T02:10:39.827Z,9.80
2022-09-27T02:13:14.337Z,9.80
2022-09-27T02:16:03.486Z,9.80
2022-09-27T02:18:50.266Z,9.80
2022-09-27T02:21:25.554Z,9.80
2022-09-27T02:24:00.049Z,9.80
2022-09-27T02:26:34.091Z,9.80
2022-09-27T02:29:08.503Z,9.80
2022-09-27T02:31:40.334Z,9.80
2022-09-27T02:34:24.876Z,9.90
2022-09-27T02:36:57.037Z,9.80
2022-09-27T02:39:31.153Z,9.80
2022-09-27T02:42:03.747Z,9.80
2022-09-27T02:44:35.851Z,9.80
2022-09-27T02:47:13.644Z,9.80
2022-09-27T02:50:04.372Z,9.80
2022-09-27T02:52:57.364Z,9.80
2022-09-27T02:55:29.052Z,9.80
2022-09-27T02:58:00.799Z,9.70
2022-09-27T03:01:06.005Z,9.70
2022-09-27T03:03:48.170Z,9.70
2022-09-27T03:06:21.248Z,9.60
2022-09-27T03:08:57.026Z,9.50
2022-09-27T03:11:28.747Z,9.50
2022-09-27T03:14:09.263Z,9.40
2022-09-27T03:16:41.217Z,9.30
2022-09-27T03:19:13.404Z,9.30
2022-09-27T03:21:45.108Z,9.20
2022-09-27T03:24:16.861Z,9.20
2022-09-27T03:26:48.603Z,9.10
2022-09-27T03:29:20.354Z,9.10
2022-09-27T03:31:52.120Z,9.00
2022-09-27T03:34:23.918Z,9.00
2022-09-27T03:36:58.532Z,8.90
2022-09-27T03:39:30.368Z,8.90
2022-09-27T03:42:04.472Z,8.80
2022-09-27T03:44:38.466Z,8.80
2022-09-27T03:47:10.458Z,8.80
2022-09-27T03:49:42.214Z,8.70
2022-09-27T03:52:18.597Z,8.70
2022-09-27T03:54:50.427Z,8.60
2022-09-27T03:57:24.521Z,8.60
2022-09-27T03:59:56.403Z,8.50
2022-09-27T04:02:28.196Z,8.50
2022-09-27T04:05:00.000Z,8.40
2022-09-27T04:07:31.694Z,8.50
2022-09-27T04:10:04.278Z,8.40
2022-09-27T04:12:35.978Z,8.40
2022-09-27T04:15:10.888Z,8.40
2022-09-27T04:17:42.944Z,8.40
2022-09-27T04:20:14.769Z,8.40
2022-09-27T04:22:46.554Z,8.40
2022-09-27T04:25:18.340Z,8.40
2022-09-27T04:27:54.796Z,8.40
2022-09-27T04:30:26.969Z,8.50
2022-09-27T04:32:58.700Z,8.50
2022-09-27T04:36:02.126Z,8.50
2022-09-27T04:38:33.942Z,8.50
2022-09-27T04:41:05.774Z,8.50
2022-09-27T04:43:39.688Z,8.50
2022-09-27T04:46:11.478Z,8.50
2022-09-27T04:48:43.222Z,8.50
2022-09-27T04:51:17.735Z,8.50
2022-09-27T04:53:51.900Z,8.50
2022-09-27T04:56:23.729Z,8.50
2022-09-27T04:58:55.449Z,8.60
2022-09-27T05:01:27.497Z,8.60
2022-09-27T05:04:02.161Z,8.60
2022-09-27T05:06:33.895Z,8.90
2022-09-27T05:09:05.721Z,8.70
2022-09-27T05:11:38.438Z,8.70
2022-09-27T05:14:10.283Z,8.80
2022-09-27T05:16:42.159Z,8.80
2022-09-27T05:19:13.950Z,8.90
2022-09-27T05:21:55.355Z,9.00
2022-09-27T05:24:30.443Z,9.00
2022-09-27T05:27:02.801Z,9.10
2022-09-27T05:29:35.239Z,9.20
2022-09-27T05:32:10.222Z,9.30
2022-09-27T05:34:42.114Z,9.30
2022-09-27T05:37:14.459Z,9.40
2022-09-27T05:39:46.317Z,9.50
2022-09-27T05:42:25.585Z,9.60
2022-09-27T05:45:00.850Z,9.70
2022-09-27T05:47:32.705Z,9.70
2022-09-27T05:50:06.315Z,9.90
2022-09-27T05:52:38.283Z,10.00
2022-09-27T05:55:10.239Z,10.10
2022-09-27T05:57:42.041Z,10.20
2022-09-27T06:00:13.839Z,10.40
2022-09-27T06:02:45.886Z,10.60
2022-09-27T06:05:17.628Z,10.80
2022-09-27T06:07:49.827Z,10.90
2022-09-27T06:10:21.535Z,11.00
2022-09-27T06:12:59.027Z,11.20
2022-09-27T06:15:33.667Z,11.30
2022-09-27T06:18:06.606Z,11.50
2022-09-27T06:20:39.393Z,11.60
2022-09-27T06:23:15.597Z,11.60
2022-09-27T06:25:47.482Z,11.60
2022-09-27T06:28:19.301Z,11.70
2022-09-27T06:30:51.351Z,11.80
2022-09-27T06:33:23.280Z,12.00
2022-09-27T06:35:55.144Z,12.20
2022-09-27T06:38:26.891Z,12.20
2022-09-27T06:41:04.153Z,12.40
2022-09-27T06:43:35.940Z,12.80
2022-09-27T06:46:07.802Z,13.20
2022-09-27T06:48:39.664Z,13.40
2022-09-27T06:51:13.878Z,13.80
2022-09-27T06:53:45.675Z,14.00
2022-09-27T06:56:17.435Z,13.90
2022-09-27T06:59:07.939Z,13.70
2022-09-27T07:01:39.740Z,13.30
2022-09-27T07:04:12.069Z,13.20
2022-09-27T07:06:43.790Z,12.90
2022-09-27T07:09:15.657Z,12.80
2022-09-27T07:11:47.817Z,12.60
2022-09-27T07:14:19.840Z,12.50
2022-09-27T07:16:51.726Z,12.50
2022-09-27T07:19:23.692Z,12.40
2022-09-27T07:21:57.543Z,12.40
2022-09-27T07:24:31.815Z,12.20
2022-09-27T07:27:03.616Z,12.10
2022-09-27T07:29:35.400Z,11.90
2022-09-27T07:32:07.479Z,11.80
2022-09-27T07:34:39.273Z,11.60
2022-09-27T07:37:13.362Z,11.60
2022-09-27T07:39:47.310Z,11.60
2022-09-27T07:42:19.020Z,11.60
2022-09-27T07:44:50.767Z,11.60
2022-09-27T07:47:24.855Z,11.50
2022-09-27T07:49:56.634Z,11.60
2022-09-27T07:52:28.364Z,11.60
2022-09-27T07:55:02.316Z,11.70
2022-09-27T07:57:34.478Z,11.80
2022-09-27T08:00:07.720Z,11.90
2022-09-27T08:02:39.432Z,12.00
2022-09-27T08:05:11.929Z,12.20
2022-09-27T08:07:44.333Z,12.20
2022-09-27T08:10:16.332Z,12.10
2022-09-27T08:12:48.074Z,12.10
2022-09-27T08:15:19.899Z,12.10
2022-09-27T08:17:51.599Z,12.30
2022-09-27T08:20:23.423Z,12.40
2022-09-27T08:22:55.253Z,12.60
2022-09-27T08:25:30.627Z,12.80
2022-09-27T08:28:04.451Z,13.10
2022-09-27T08:30:36.214Z,13.30
2022-09-27T08:33:09.049Z,13.60
2022-09-27T08:35:40.790Z,13.70
2022-09-27T08:38:13.569Z,13.70
2022-09-27T08:40:45.430Z,13.70
2022-09-27T08:43:29.705Z,13.70
2022-09-27T08:46:11.322Z,13.60
2022-09-27T08:48:44.356Z,13.50
2022-09-27T08:51:16.863Z,13.50
2022-09-27T08:53:51.320Z,13.50
2022-09-27T08:56:24.192Z,13.50
2022-09-27T08:59:06.967Z,13.40
2022-09-27T09:01:39.219Z,13.40
2022-09-27T09:04:12.843Z,13.40
2022-09-27T09:06:44.655Z,13.40
2022-09-27T09:09:35.281Z,13.50
2022-09-27T09:12:45.637Z,13.50
2022-09-27T09:15:17.394Z,13.50
2022-09-27T09:17:49.099Z,13.40
2022-09-27T09:20:56.402Z,13.50
2022-09-27T09:23:40.409Z,13.50
2022-09-27T09:26:24.833Z,13.60
2022-09-27T09:29:04.182Z,13.70
2022-09-27T09:31:35.947Z,13.80
2022-09-27T09:34:19.708Z,14.00
2022-09-27T09:36:56.954Z,14.20
2022-09-27T09:39:31.254Z,14.20
2022-09-27T09:42:35.988Z,14.30
2022-09-27T09:45:16.650Z,14.50
2022-09-27T09:47:53.134Z,14.50
2022-09-27T09:50:29.384Z,14.70
2022-09-27T09:53:05.947Z,14.80
2022-09-27T09:55:38.875Z,14.60
2022-09-27T09:58:20.836Z,14.30
2022-09-27T10:00:55.237Z,14.40
2022-09-27T10:03:26.958Z,14.40
2022-09-27T10:05:58.733Z,14.50
2022-09-27T10:08:30.511Z,14.60
2022-09-27T10:11:02.286Z,14.70
2022-09-27T10:13:36.606Z,14.80
2022-09-27T10:16:10.398Z,14.80
2022-09-27T10:18:49.676Z,14.70
2022-09-27T10:21:22.107Z,14.70
2022-09-27T10:24:12.250Z,14.70
2022-09-27T10:26:47.315Z,14.80
2022-09-27T10:29:22.796Z,14.70
2022-09-27T10:31:57.043Z,14.80
2022-09-27T10:34:29.897Z,14.80
2022-09-27T10:37:06.841Z,15.00
2022-09-27T10:39:41.805Z,14.80
2022-09-27T10:42:33.799Z,14.90
2022-09-27T10:45:24.358Z,14.80
2022-09-27T10:47:59.104Z,14.80
2022-09-27T10:50:49.481Z,14.80
2022-09-27T10:53:24.690Z,14.80
2022-09-27T10:55:56.722Z,14.70
2022-09-27T10:58:33.131Z,14.70
2022-09-27T11:01:09.712Z,14.60
2022-09-27T11:03:58.635Z,14.70
2022-09-27T11:06:37.753Z,14.80
2022-09-27T11:09:15.417Z,14.90
2022-09-27T11:11:47.887Z,15.00
2022-09-27T11:14:24.342Z,15.20
2022-09-27T11:16:56.053Z,15.20
2022-09-27T11:19:43.107Z,15.20
2022-09-27T11:22:27.123Z,15.10
2022-09-27T11:25:10.659Z,15.10
2022-09-27T11:27:45.103Z,15.20
2022-09-27T11:30:21.028Z,15.30
2022-09-27T11:32:58.152Z,15.40
2022-09-27T11:35:32.739Z,15.50
2022-09-27T11:38:47.953Z,15.60
2022-09-27T11:41:34.155Z,15.70
2022-09-27T11:44:18.246Z,15.60
2022-09-27T11:46:59.021Z,15.60
2022-09-27T11:49:54.268Z,15.70
2022-09-27T11:52:36.812Z,15.80
2022-09-27T11:55:14.446Z,15.80
2022-09-27T11:58:01.000Z,15.70
2022-09-27T12:00:38.164Z,15.80
2022-09-27T12:03:18.139Z,15.90
2022-09-27T12:05:58.185Z,15.90
2022-09-27T12:08:44.269Z,15.90
2022-09-27T12:11:42.638Z,16.10
2022-09-27T12:14:27.452Z,16.10
2022-09-27T12:16:59.792Z,16.20
2022-09-27T12:19:37.198Z,16.10
2022-09-27T12:22:13.135Z,16.20
2022-09-27T12:24:45.803Z,16.20
2022-09-27T12:27:25.556Z,16.30
2022-09-27T12:29:58.692Z,16.30
2022-09-27T12:32:38.727Z,16.40
2022-09-27T12:35:18.426Z,16.30
2022-09-27T12:37:59.680Z,16.30
2022-09-27T12:40:36.391Z,16.30
2022-09-27T12:43:12.215Z,16.30
2022-09-27T12:45:46.374Z,16.10
2022-09-27T12:48:44.539Z,16.00
2022-09-27T12:51:20.097Z,15.80
2022-09-27T12:53:58.307Z,15.80
2022-09-27T12:56:36.191Z,15.80
2022-09-27T12:59:10.397Z,15.70
2022-09-27T13:02:00.860Z,15.80
2022-09-27T13:04:53.304Z,15.70
2022-09-27T13:07:37.602Z,15.60
2022-09-27T13:10:12.206Z,15.50
2022-09-27T13:12:49.199Z,15.50
2022-09-27T13:15:20.913Z,15.40
2022-09-27T13:17:56.885Z,15.40
2022-09-27T13:20:31.413Z,15.40
2022-09-27T13:23:23.522Z,15.40
2022-09-27T13:25:59.887Z,15.40
2022-09-27T13:28:38.457Z,15.40
2022-09-27T13:31:15.313Z,15.40
2022-09-27T13:33:49.409Z,15.50
2022-09-27T13:36:28.435Z,15.50
2022-09-27T13:39:06.631Z,15.50
2022-09-27T13:41:46.549Z,15.50
2022-09-27T13:44:24.385Z,15.50
2022-09-27T13:46:56.078Z,15.60
2022-09-27T13:49:29.331Z,15.60
2022-09-27T13:52:03.669Z,15.70
2022-09-27T13:54:50.992Z,15.80
2022-09-27T13:57:41.427Z,15.80
2022-09-27T14:00:17.469Z,16.00
2022-09-27T14:02:55.300Z,15.90
2022-09-27T14:05:36.491Z,15.90
2022-09-27T14:08:15.378Z,15.60
2022-09-27T14:10:48.072Z,15.50
2022-09-27T14:13:20.609Z,15.40
2022-09-27T14:15:52.977Z,15.30
2022-09-27T14:18:27.107Z,15.30
2022-09-27T14:21:17.707Z,15.20
2022-09-27T14:23:50.773Z,15.20
2022-09-27T14:26:29.400Z,15.20
2022-09-27T14:29:01.146Z,15.10
2022-09-27T14:31:33.270Z,15.20
2022-09-27T14:34:06.322Z,15.20
2022-09-27T14:36:56.746Z,15.20
2022-09-27T14:39:31.305Z,15.20
2022-09-27T14:42:05.289Z,15.20
2022-09-27T14:44:37.057Z,15.30
2022-09-27T14:47:25.665Z,15.40
2022-09-27T14:49:59.865Z,15.40
2022-09-27T14:52:35.130Z,15.40
2022-09-27T14:55:11.909Z,15.40
2022-09-27T14:57:50.770Z,15.40
2022-09-27T15:00:22.994Z,15.30
2022-09-27T15:02:56.086Z,15.30
2022-09-27T15:05:29.354Z,15.20
2022-09-27T15:08:05.987Z,15.30
2022-09-27T15:10:39.004Z,15.20
2022-09-27T15:13:14.664Z,15.20
2022-09-27T15:15:47.415Z,15.10
2022-09-27T15:18:46.661Z,15.10
2022-09-27T15:21:34.435Z,15.00
2022-09-27T15:24:06.401Z,14.90
2022-09-27T15:26:40.353Z,14.80
2022-09-27T15:29:23.270Z,14.80
2022-09-27T15:31:59.581Z,14.80
2022-09-27T15:34:33.012Z,14.70
2022-09-27T15:37:06.494Z,14.70
2022-09-27T15:39:39.393Z,14.80
2022-09-27T15:42:17.680Z,14.70
2022-09-27T15:44:50.604Z,14.70
2022-09-27T15:47:32.089Z,14.70
2022-09-27T15:50:19.303Z,14.60
2022-09-27T15:52:56.080Z,14.60
2022-09-27T15:55:29.228Z,14.50
2022-09-27T15:58:06.174Z,14.50
2022-09-27T16:00:38.051Z,14.40
2022-09-27T16:03:13.025Z,14.30
2022-09-27T16:05:44.879Z,14.30
2022-09-27T16:08:16.653Z,14.30
2022-09-27T16:10:50.379Z,14.30
2022-09-27T16:13:27.784Z,14.20
2022-09-27T16:16:04.902Z,14.20
2022-09-27T16:18:38.797Z,14.10
2022-09-27T16:21:10.654Z,14.10
2022-09-27T16:23:44.958Z,14.10
2022-09-27T16:26:17.324Z,14.10
2022-09-27T16:28:49.550Z,14.00
2022-09-27T16:31:23.767Z,14.00
2022-09-27T16:33:55.720Z,14.00
2022-09-27T16:36:30.395Z,14.00
2022-09-27T16:39:05.084Z,14.00
2022-09-27T16:41:40.166Z,14.00
2022-09-27T16:44:13.880Z,13.90
2022-09-27T16:46:49.020Z,13.90
2022-09-27T16:49:39.301Z,13.90
2022-09-27T16:52:13.266Z,13.90
2022-09-27T16:54:47.465Z,13.80
2022-09-27T16:57:19.219Z,13.80
2022-09-27T16:59:51.044Z,13.80
2022-09-27T17:02:24.299Z,13.80
2022-09-27T17:04:56.085Z,13.70
2022-09-27T17:07:28.220Z,13.70
2022-09-27T17:10:00.064Z,13.70
2022-09-27T17:12:32.309Z,13.70
2022-09-27T17:15:04.430Z,13.60
2022-09-27T17:17:36.383Z,13.50
2022-09-27T17:20:08.325Z,13.50
2022-09-27T17:22:40.198Z,13.40
2022-09-27T17:25:12.246Z,13.40
2022-09-27T17:27:44.136Z,13.30
2022-09-27T17:30:19.991Z,13.30
2022-09-27T17:32:54.872Z,13.20
2022-09-27T17:35:26.737Z,13.20
2022-09-27T17:37:58.713Z,13.10
2022-09-27T17:40:30.679Z,13.10
2022-09-27T17:43:06.119Z,13.00
2022-09-27T17:45:37.888Z,13.00
2022-09-27T17:48:28.277Z,12.90
2022-09-27T17:51:00.280Z,12.90
2022-09-27T17:53:36.105Z,12.90
2022-09-27T17:56:08.274Z,12.80
2022-09-27T17:58:40.424Z,12.80
2022-09-27T18:01:14.405Z,12.80
2022-09-27T18:03:46.633Z,12.80
2022-09-27T18:06:18.531Z,12.80
2022-09-27T18:08:50.726Z,12.80
2022-09-27T18:11:28.669Z,12.70
2022-09-27T18:14:03.742Z,12.70
2022-09-27T18:16:39.390Z,12.70
2022-09-27T18:19:13.618Z,12.70
2022-09-27T18:21:45.594Z,12.60
2022-09-27T18:24:18.014Z,12.60
2022-09-27T18:26:50.134Z,12.60
2022-09-27T18:29:22.506Z,12.60
2022-09-27T18:31:54.793Z,12.60
2022-09-27T18:34:26.889Z,12.60
2022-09-27T18:36:58.839Z,12.50
2022-09-27T18:39:30.722Z,12.50
2022-09-27T18:42:02.651Z,12.50
2022-09-27T18:44:34.626Z,12.40
2022-09-27T18:47:06.671Z,12.40
2022-09-27T18:49:38.646Z,12.40
2022-09-27T18:52:10.634Z,12.30
2022-09-27T18:54:44.107Z,12.20
2022-09-27T18:57:16.324Z,12.20
2022-09-27T18:59:50.004Z,12.10
2022-09-27T19:02:24.558Z,12.10
2022-09-27T19:04:56.561Z,12.10
2022-09-27T19:07:29.009Z,12.10
2022-09-27T19:10:02.338Z,12.10
2022-09-27T19:12:34.568Z,12.10
2022-09-27T19:15:09.482Z,12.10
2022-09-27T19:17:42.533Z,12.10
2022-09-27T19:20:17.467Z,12.10
2022-09-27T19:22:49.360Z,12.10
2022-09-27T19:25:21.820Z,12.10
2022-09-27T19:27:54.029Z,12.10
2022-09-27T19:30:26.503Z,12.10
2022-09-27T19:33:01.617Z,12.10
2022-09-27T19:35:34.556Z,12.10
2022-09-27T19:38:09.455Z,12.10
2022-09-27T19:40:41.774Z,12.10
2022-09-27T19:43:13.633Z,12.10
2022-09-27T19:45:45.952Z,12.10
2022-09-27T19:48:20.512Z,12.10
2022-09-27T19:50:59.034Z,12.10
2022-09-27T19:53:32.430Z,12.10
2022-09-27T19:56:07.524Z,12.10
2022-09-27T19:58:39.990Z,12.10
2022-09-27T20:01:25.106Z,12.10
2022-09-27T20:04:00.163Z,12.10
2022-09-27T20:06:32.949Z,12.10
2022-09-27T20:09:05.056Z,12.10
2022-09-27T20:11:36.841Z,12.10
2022-09-27T20:14:08.853Z,12.10
2022-09-27T20:16:43.129Z,12.10
2022-09-27T20:19:15.096Z,12.10
2022-09-27T20:21:47.187Z,12.10
2022-09-27T20:24:19.460Z,12.10
2022-09-27T20:26:51.370Z,12.00
2022-09-27T20:29:23.107Z,12.00
2022-09-27T20:32:15.874Z,12.00
2022-09-27T20:34:47.618Z,12.00
2022-09-27T20:37:19.438Z,12.00
2022-09-27T20:39:52.661Z,11.90
2022-09-27T20:42:24.411Z,11.90
2022-09-27T20:44:56.181Z,11.90
2022-09-27T20:47:30.536Z,11.90
2022-09-27T20:50:03.264Z,11.90
2022-09-27T20:52:35.110Z,11.90
2022-09-27T20:55:07.128Z,11.90
2022-09-27T20:57:56.358Z,11.90
2022-09-27T21:00:28.658Z,11.80
2022-09-27T21:03:00.936Z,11.90
2022-09-27T21:05:32.680Z,11.80
2022-09-27T21:08:04.445Z,11.80
2022-09-27T21:10:36.172Z,11.80
2022-09-27T21:13:07.902Z,11.80
2022-09-27T21:15:39.650Z,11.80
2022-09-27T21:18:11.386Z,11.80
2022-09-27T21:20:43.225Z,11.80
2022-09-27T21:23:15.036Z,11.80
2022-09-27T21:25:46.702Z,11.80
2022-09-27T21:28:20.991Z,11.80
2022-09-27T21:30:52.719Z,11.80
2022-09-27T21:33:24.581Z,11.80
2022-09-27T21:35:56.390Z,11.80
2022-09-27T21:38:30.028Z,11.80
2022-09-27T21:41:05.939Z,11.80
2022-09-27T21:43:40.066Z,11.80
2022-09-27T21:46:13.321Z,11.80
2022-09-27T21:48:46.500Z,11.80
2022-09-27T21:51:19.983Z,11.80
2022-09-27T21:53:53.005Z,11.80
2022-09-27T21:56:28.975Z,11.80
2022-09-27T21:59:00.924Z,11.80
2022-09-27T22:01:33.515Z,11.80
2022-09-27T22:04:06.627Z,11.70
2022-09-27T22:06:38.969Z,11.70
2022-09-27T22:09:17.251Z,11.70
2022-09-27T22:11:51.361Z,11.70
2022-09-27T22:14:25.370Z,11.70
2022-09-27T22:16:57.074Z,11.70
2022-09-27T22:19:28.838Z,11.60
2022-09-27T22:22:00.567Z,11.60
2022-09-27T22:24:32.364Z,11.60
2022-09-27T22:27:04.100Z,11.70
2022-09-27T22:29:35.838Z,11.60
2022-09-27T22:32:09.924Z,11.60
2022-09-27T22:34:41.637Z,11.60
2022-09-27T22:37:15.925Z,11.60
2022-09-27T22:39:47.710Z,11.50
2022-09-27T22:42:20.701Z,11.60
2022-09-27T22:44:54.817Z,11.50
2022-09-27T22:47:26.522Z,11.50
2022-09-27T22:50:03.765Z,11.50
2022-09-27T22:52:35.484Z,11.50
2022-09-27T22:55:09.561Z,11.50
2022-09-27T22:57:41.303Z,11.50
2022-09-27T23:00:13.331Z,11.50
2022-09-27T23:02:45.021Z,11.50
2022-09-27T23:05:16.773Z,11.50
2022-09-27T23:07:48.940Z,11.40
2022-09-27T23:10:24.135Z,11.40
2022-09-27T23:12:58.316Z,11.40
2022-09-27T23:15:30.204Z,11.40
2022-09-27T23:18:02.277Z,11.30
2022-09-27T23:20:34.638Z,11.30
2022-09-27T23:23:12.358Z,11.30
2022-09-27T23:25:44.108Z,11.20
2022-09-27T23:28:15.830Z,11.20
2022-09-27T23:30:50.078Z,11.20
2022-09-27T23:33:22.535Z,11.20
2022-09-27T23:35:57.179Z,11.20
2022-09-27T23:38:29.706Z,11.20
2022-09-27T23:41:01.608Z,11.20
2022-09-27T23:43:33.479Z,11.20
2022-09-27T23:46:06.076Z,11.20
2022-09-27T23:48:38.026Z,11.20
2022-09-27T23:51:10.759Z,11.20
2022-09-27T23:53:42.577Z,11.20
2022-09-27T23:56:15.471Z,11.20
2022-09-27T23:58:47.255Z,11.10
